sensor_id;sensor_type;location;lat;lon;timestamp;pressure;altitude;pressure_sealevel;temperature;humidity
68197;BME280;55019;49.382;11.358;2023-04-26T00:02:13;96528.78;;;4.79;74.23
68197;BME280;55019;49.382;11.358;2023-04-26T00:04:40;96526.50;;;4.76;74.62
68197;BME280;55019;49.382;11.358;2023-04-26T00:07:06;96534.47;;;4.82;74.03
68197;BME280;55019;49.382;11.358;2023-04-26T00:09:32;96531.03;;;4.63;75.23
68197;BME280;55019;49.382;11.358;2023-04-26T00:12:01;96535.41;;;4.51;76.50
68197;BME280;55019;49.382;11.358;2023-04-26T00:14:27;96531.91;;;4.52;76.16
68197;BME280;55019;49.382;11.358;2023-04-26T00:16:53;96531.28;;;4.60;76.47
68197;BME280;55019;49.382;11.358;2023-04-26T00:19:18;96545.06;;;4.68;75.49
68197;BME280;55019;49.382;11.358;2023-04-26T00:21:44;96533.84;;;4.60;75.63
68197;BME280;55019;49.382;11.358;2023-04-26T00:24:10;96542.09;;;4.63;75.64
68197;BME280;55019;49.382;11.358;2023-04-26T00:26:36;96539.63;;;4.62;76.45
68197;BME280;55019;49.382;11.358;2023-04-26T00:29:03;96547.53;;;4.79;76.10
68197;BME280;55019;49.382;11.358;2023-04-26T00:31:28;96537.09;;;4.92;75.32
68197;BME280;55019;49.382;11.358;2023-04-26T00:33:54;96544.25;;;4.98;75.60
68197;BME280;55019;49.382;11.358;2023-04-26T00:36:20;96538.28;;;4.97;75.80
68197;BME280;55019;49.382;11.358;2023-04-26T00:38:46;96545.44;;;4.94;75.84
68197;BME280;55019;49.382;11.358;2023-04-26T00:41:12;96533.44;;;4.94;75.92
68197;BME280;55019;49.382;11.358;2023-04-26T00:43:39;96535.47;;;5.00;75.86
68197;BME280;55019;49.382;11.358;2023-04-26T00:46:07;96542.34;;;5.00;75.53
68197;BME280;55019;49.382;11.358;2023-04-26T00:48:33;96550.81;;;4.91;76.69
68197;BME280;55019;49.382;11.358;2023-04-26T00:51:00;96549.94;;;4.81;76.65
68197;BME280;55019;49.382;11.358;2023-04-26T00:53:26;96551.34;;;4.85;75.95
68197;BME280;55019;49.382;11.358;2023-04-26T00:55:51;96560.84;;;4.73;76.40
68197;BME280;55019;49.382;11.358;2023-04-26T00:58:18;96552.50;;;4.81;76.34
68197;BME280;55019;49.382;11.358;2023-04-26T01:00:45;96558.50;;;4.61;75.78
68197;BME280;55019;49.382;11.358;2023-04-26T01:03:13;96553.94;;;4.64;76.69
68197;BME280;55019;49.382;11.358;2023-04-26T01:05:39;96562.25;;;4.57;76.58
68197;BME280;55019;49.382;11.358;2023-04-26T01:08:05;96560.56;;;4.46;76.69
68197;BME280;55019;49.382;11.358;2023-04-26T01:10:33;96560.72;;;4.24;78.33
68197;BME280;55019;49.382;11.358;2023-04-26T01:13:00;96549.28;;;4.28;78.02
68197;BME280;55019;49.382;11.358;2023-04-26T01:15:26;96546.13;;;4.36;77.10
68197;BME280;55019;49.382;11.358;2023-04-26T01:17:52;96547.59;;;4.18;78.57
68197;BME280;55019;49.382;11.358;2023-04-26T01:20:19;96550.41;;;4.15;78.30
68197;BME280;55019;49.382;11.358;2023-04-26T01:22:45;96554.31;;;3.99;78.50
68197;BME280;55019;49.382;11.358;2023-04-26T01:25:11;96556.34;;;3.95;79.00
68197;BME280;55019;49.382;11.358;2023-04-26T01:27:37;96549.09;;;4.00;78.22
68197;BME280;55019;49.382;11.358;2023-04-26T01:30:04;96551.94;;;4.07;77.43
68197;BME280;55019;49.382;11.358;2023-04-26T01:32:30;96563.31;;;3.93;76.78
68197;BME280;55019;49.382;11.358;2023-04-26T01:34:57;96557.22;;;4.05;77.13
68197;BME280;55019;49.382;11.358;2023-04-26T01:37:22;96555.41;;;3.96;76.71
68197;BME280;55019;49.382;11.358;2023-04-26T01:39:49;96560.78;;;4.14;74.89
68197;BME280;55019;49.382;11.358;2023-04-26T01:42:14;96566.59;;;3.84;75.64
68197;BME280;55019;49.382;11.358;2023-04-26T01:44:40;96560.09;;;3.80;76.34
68197;BME280;55019;49.382;11.358;2023-04-26T01:47:06;96558.47;;;3.79;75.35
68197;BME280;55019;49.382;11.358;2023-04-26T01:49:31;96576.97;;;4.03;74.87
68197;BME280;55019;49.382;11.358;2023-04-26T01:51:58;96577.06;;;4.13;74.99
68197;BME280;55019;49.382;11.358;2023-04-26T01:54:24;96571.72;;;3.84;75.34
68197;BME280;55019;49.382;11.358;2023-04-26T01:56:51;96574.03;;;3.87;76.06
68197;BME280;55019;49.382;11.358;2023-04-26T01:59:17;96579.69;;;3.59;76.51
68197;BME280;55019;49.382;11.358;2023-04-26T02:01:43;96571.38;;;3.46;77.59
68197;BME280;55019;49.382;11.358;2023-04-26T02:04:09;96574.38;;;3.51;77.06
68197;BME280;55019;49.382;11.358;2023-04-26T02:06:35;96576.34;;;3.59;77.66
68197;BME280;55019;49.382;11.358;2023-04-26T02:09:03;96573.00;;;3.47;77.90
68197;BME280;55019;49.382;11.358;2023-04-26T02:11:30;96575.28;;;3.61;77.31
68197;BME280;55019;49.382;11.358;2023-04-26T02:13:56;96574.84;;;3.45;78.74
68197;BME280;55019;49.382;11.358;2023-04-26T02:16:22;96573.38;;;3.32;78.49
68197;BME280;55019;49.382;11.358;2023-04-26T02:18:48;96571.50;;;3.34;78.39
68197;BME280;55019;49.382;11.358;2023-04-26T02:21:18;96576.81;;;3.42;78.78
68197;BME280;55019;49.382;11.358;2023-04-26T02:23:44;96574.84;;;3.45;78.33
68197;BME280;55019;49.382;11.358;2023-04-26T02:26:10;96573.25;;;3.44;78.64
68197;BME280;55019;49.382;11.358;2023-04-26T02:28:38;96573.84;;;3.26;79.20
68197;BME280;55019;49.382;11.358;2023-04-26T02:31:04;96568.94;;;3.45;78.93
68197;BME280;55019;49.382;11.358;2023-04-26T02:33:30;96569.97;;;3.53;78.38
68197;BME280;55019;49.382;11.358;2023-04-26T02:35:56;96563.63;;;3.68;77.78
68197;BME280;55019;49.382;11.358;2023-04-26T02:38:23;96557.38;;;3.61;78.24
68197;BME280;55019;49.382;11.358;2023-04-26T02:40:57;96558.28;;;3.71;77.15
68197;BME280;55019;49.382;11.358;2023-04-26T02:43:23;96564.56;;;3.67;77.12
68197;BME280;55019;49.382;11.358;2023-04-26T02:45:49;96565.69;;;3.74;77.05
68197;BME280;55019;49.382;11.358;2023-04-26T02:48:15;96559.91;;;3.72;76.95
68197;BME280;55019;49.382;11.358;2023-04-26T02:50:41;96575.50;;;3.58;77.67
68197;BME280;55019;49.382;11.358;2023-04-26T02:53:07;96566.25;;;3.46;77.53
68197;BME280;55019;49.382;11.358;2023-04-26T02:55:33;96575.75;;;3.55;77.98
68197;BME280;55019;49.382;11.358;2023-04-26T02:57:58;96572.03;;;3.59;76.92
68197;BME280;55019;49.382;11.358;2023-04-26T03:00:24;96570.00;;;3.42;78.17
68197;BME280;55019;49.382;11.358;2023-04-26T03:02:50;96573.47;;;3.41;77.75
68197;BME280;55019;49.382;11.358;2023-04-26T03:05:17;96570.09;;;3.41;77.31
68197;BME280;55019;49.382;11.358;2023-04-26T03:07:42;96573.34;;;3.43;77.37
68197;BME280;55019;49.382;11.358;2023-04-26T03:10:08;96570.91;;;3.30;78.21
68197;BME280;55019;49.382;11.358;2023-04-26T03:12:35;96571.28;;;3.37;77.73
68197;BME280;55019;49.382;11.358;2023-04-26T03:15:01;96567.47;;;3.20;78.15
68197;BME280;55019;49.382;11.358;2023-04-26T03:17:29;96566.91;;;3.17;78.28
68197;BME280;55019;49.382;11.358;2023-04-26T03:19:58;96574.34;;;3.20;77.99
68197;BME280;55019;49.382;11.358;2023-04-26T03:22:24;96585.56;;;3.17;78.51
68197;BME280;55019;49.382;11.358;2023-04-26T03:24:50;96583.16;;;3.16;78.27
68197;BME280;55019;49.382;11.358;2023-04-26T03:27:15;96587.00;;;2.99;78.70
68197;BME280;55019;49.382;11.358;2023-04-26T03:29:41;96593.03;;;2.98;78.93
68197;BME280;55019;49.382;11.358;2023-04-26T03:32:07;96587.00;;;2.88;79.53
68197;BME280;55019;49.382;11.358;2023-04-26T03:34:33;96590.34;;;2.89;79.39
68197;BME280;55019;49.382;11.358;2023-04-26T03:36:58;96581.88;;;2.78;79.87
68197;BME280;55019;49.382;11.358;2023-04-26T03:39:24;96585.25;;;2.78;80.08
68197;BME280;55019;49.382;11.358;2023-04-26T03:41:51;96590.81;;;2.83;79.46
68197;BME280;55019;49.382;11.358;2023-04-26T03:44:16;96585.03;;;2.70;79.47
68197;BME280;55019;49.382;11.358;2023-04-26T03:46:43;96595.31;;;2.58;80.65
68197;BME280;55019;49.382;11.358;2023-04-26T03:49:09;96587.91;;;2.55;80.95
68197;BME280;55019;49.382;11.358;2023-04-26T03:51:34;96599.97;;;2.64;79.91
68197;BME280;55019;49.382;11.358;2023-04-26T03:54:00;96599.94;;;2.42;80.87
68197;BME280;55019;49.382;11.358;2023-04-26T03:56:26;96594.84;;;2.42;81.32
68197;BME280;55019;49.382;11.358;2023-04-26T03:58:52;96603.50;;;2.28;81.80
68197;BME280;55019;49.382;11.358;2023-04-26T04:01:18;96599.19;;;2.29;81.52
68197;BME280;55019;49.382;11.358;2023-04-26T04:03:44;96598.25;;;2.19;82.90
68197;BME280;55019;49.382;11.358;2023-04-26T04:06:10;96601.25;;;2.13;83.60
68197;BME280;55019;49.382;11.358;2023-04-26T04:08:37;96603.22;;;2.09;83.61
68197;BME280;55019;49.382;11.358;2023-04-26T04:11:03;96607.44;;;1.87;84.39
68197;BME280;55019;49.382;11.358;2023-04-26T04:13:31;96608.06;;;1.78;84.90
68197;BME280;55019;49.382;11.358;2023-04-26T04:15:57;96595.59;;;1.86;84.73
68197;BME280;55019;49.382;11.358;2023-04-26T04:18:23;96608.44;;;1.84;84.22
68197;BME280;55019;49.382;11.358;2023-04-26T04:20:49;96617.22;;;1.80;85.75
68197;BME280;55019;49.382;11.358;2023-04-26T04:23:15;96618.19;;;1.90;85.27
68197;BME280;55019;49.382;11.358;2023-04-26T04:25:41;96610.25;;;1.71;86.23
68197;BME280;55019;49.382;11.358;2023-04-26T04:28:10;96613.06;;;1.79;85.34
68197;BME280;55019;49.382;11.358;2023-04-26T04:30:37;96624.25;;;1.77;86.22
68197;BME280;55019;49.382;11.358;2023-04-26T04:33:03;96619.06;;;1.78;86.46
68197;BME280;55019;49.382;11.358;2023-04-26T04:35:30;96632.41;;;1.58;87.09
68197;BME280;55019;49.382;11.358;2023-04-26T04:37:59;96627.63;;;1.54;87.81
68197;BME280;55019;49.382;11.358;2023-04-26T04:40:26;96625.63;;;1.70;87.62
68197;BME280;55019;49.382;11.358;2023-04-26T04:42:53;96629.16;;;1.80;87.30
68197;BME280;55019;49.382;11.358;2023-04-26T04:45:20;96625.25;;;2.10;86.31
68197;BME280;55019;49.382;11.358;2023-04-26T04:47:47;96623.41;;;2.23;84.81
68197;BME280;55019;49.382;11.358;2023-04-26T04:50:13;96611.44;;;2.13;85.15
68197;BME280;55019;49.382;11.358;2023-04-26T04:52:39;96628.13;;;2.17;84.98
68197;BME280;55019;49.382;11.358;2023-04-26T04:55:05;96628.50;;;2.12;85.13
68197;BME280;55019;49.382;11.358;2023-04-26T04:57:33;96636.03;;;2.25;85.34
68197;BME280;55019;49.382;11.358;2023-04-26T04:59:59;96633.00;;;2.20;85.57
68197;BME280;55019;49.382;11.358;2023-04-26T05:02:33;96620.81;;;2.58;84.51
68197;BME280;55019;49.382;11.358;2023-04-26T05:04:59;96630.34;;;2.56;84.06
68197;BME280;55019;49.382;11.358;2023-04-26T05:07:25;96633.25;;;2.62;83.98
68197;BME280;55019;49.382;11.358;2023-04-26T05:09:52;96625.94;;;2.79;83.27
68197;BME280;55019;49.382;11.358;2023-04-26T05:12:18;96630.34;;;2.67;83.37
68197;BME280;55019;49.382;11.358;2023-04-26T05:14:44;96635.50;;;2.88;82.53
68197;BME280;55019;49.382;11.358;2023-04-26T05:17:10;96634.88;;;2.74;83.71
68197;BME280;55019;49.382;11.358;2023-04-26T05:19:36;96631.28;;;2.77;84.08
68197;BME280;55019;49.382;11.358;2023-04-26T05:22:02;96651.97;;;3.06;82.84
68197;BME280;55019;49.382;11.358;2023-04-26T05:24:29;96645.94;;;3.07;82.41
68197;BME280;55019;49.382;11.358;2023-04-26T05:26:57;96655.81;;;3.12;81.84
68197;BME280;55019;49.382;11.358;2023-04-26T05:29:46;96655.44;;;3.27;81.81
68197;BME280;55019;49.382;11.358;2023-04-26T05:32:24;96653.00;;;3.37;81.27
68197;BME280;55019;49.382;11.358;2023-04-26T05:35:08;96655.22;;;3.41;80.91
68197;BME280;55019;49.382;11.358;2023-04-26T05:37:34;96662.16;;;3.39;81.25
68197;BME280;55019;49.382;11.358;2023-04-26T05:40:00;96650.53;;;3.57;80.39
68197;BME280;55019;49.382;11.358;2023-04-26T05:42:26;96664.56;;;3.52;79.77
68197;BME280;55019;49.382;11.358;2023-04-26T05:44:58;96662.72;;;3.65;78.56
68197;BME280;55019;49.382;11.358;2023-04-26T05:47:25;96665.34;;;3.74;77.53
68197;BME280;55019;49.382;11.358;2023-04-26T05:49:53;96667.13;;;3.63;77.99
68197;BME280;55019;49.382;11.358;2023-04-26T05:52:19;96673.03;;;3.85;78.07
68197;BME280;55019;49.382;11.358;2023-04-26T05:54:45;96671.53;;;4.14;76.17
68197;BME280;55019;49.382;11.358;2023-04-26T05:57:11;96674.13;;;4.34;74.65
68197;BME280;55019;49.382;11.358;2023-04-26T05:59:37;96680.28;;;4.32;74.27
68197;BME280;55019;49.382;11.358;2023-04-26T06:02:03;96686.31;;;4.31;74.08
68197;BME280;55019;49.382;11.358;2023-04-26T06:04:29;96679.34;;;4.33;74.47
68197;BME280;55019;49.382;11.358;2023-04-26T06:07:03;96683.59;;;4.43;74.24
68197;BME280;55019;49.382;11.358;2023-04-26T06:09:30;96684.44;;;4.44;73.91
68197;BME280;55019;49.382;11.358;2023-04-26T06:11:56;96687.19;;;4.52;73.87
68197;BME280;55019;49.382;11.358;2023-04-26T06:14:22;96683.88;;;4.61;73.91
68197;BME280;55019;49.382;11.358;2023-04-26T06:16:47;96677.69;;;4.84;72.86
68197;BME280;55019;49.382;11.358;2023-04-26T06:19:13;96672.53;;;4.74;71.70
68197;BME280;55019;49.382;11.358;2023-04-26T06:21:39;96677.63;;;4.95;71.21
68197;BME280;55019;49.382;11.358;2023-04-26T06:24:05;96670.91;;;5.24;69.77
68197;BME280;55019;49.382;11.358;2023-04-26T06:26:31;96673.28;;;5.16;70.64
68197;BME280;55019;49.382;11.358;2023-04-26T06:28:57;96688.34;;;5.09;69.35
68197;BME280;55019;49.382;11.358;2023-04-26T06:31:23;96690.97;;;5.49;68.99
68197;BME280;55019;49.382;11.358;2023-04-26T06:33:49;96685.53;;;5.42;68.52
68197;BME280;55019;49.382;11.358;2023-04-26T06:39:22;96679.28;;;6.04;67.41
68197;BME280;55019;49.382;11.358;2023-04-26T06:41:48;96682.25;;;6.19;65.45
68197;BME280;55019;49.382;11.358;2023-04-26T06:44:36;96693.34;;;6.29;67.41
68197;BME280;55019;49.382;11.358;2023-04-26T06:47:05;96686.72;;;6.64;63.94
68197;BME280;55019;49.382;11.358;2023-04-26T06:49:34;96685.16;;;7.09;62.60
68197;BME280;55019;49.382;11.358;2023-04-26T06:52:00;96681.03;;;6.42;62.99
68197;BME280;55019;49.382;11.358;2023-04-26T06:54:29;96689.81;;;6.77;62.69
68197;BME280;55019;49.382;11.358;2023-04-26T06:56:55;96695.50;;;6.81;63.25
68197;BME280;55019;49.382;11.358;2023-04-26T06:59:21;96695.88;;;6.95;62.44
68197;BME280;55019;49.382;11.358;2023-04-26T07:01:47;96694.44;;;7.29;61.50
68197;BME280;55019;49.382;11.358;2023-04-26T07:04:13;96682.03;;;7.51;59.27
68197;BME280;55019;49.382;11.358;2023-04-26T07:06:39;96684.28;;;7.91;59.63
68197;BME280;55019;49.382;11.358;2023-04-26T07:09:05;96687.78;;;7.90;55.86
68197;BME280;55019;49.382;11.358;2023-04-26T07:11:35;96684.75;;;8.04;57.06
68197;BME280;55019;49.382;11.358;2023-04-26T07:14:09;96700.25;;;8.39;56.47
68197;BME280;55019;49.382;11.358;2023-04-26T07:16:36;96704.38;;;8.32;55.77
68197;BME280;55019;49.382;11.358;2023-04-26T07:19:02;96694.88;;;8.67;57.96
68197;BME280;55019;49.382;11.358;2023-04-26T07:21:27;96699.69;;;9.30;53.93
68197;BME280;55019;49.382;11.358;2023-04-26T07:23:56;96688.88;;;9.01;54.98
68197;BME280;55019;49.382;11.358;2023-04-26T07:26:23;96700.97;;;8.83;54.03
68197;BME280;55019;49.382;11.358;2023-04-26T07:28:52;96699.06;;;9.11;52.36
68197;BME280;55019;49.382;11.358;2023-04-26T07:31:19;96701.16;;;9.58;52.25
68197;BME280;55019;49.382;11.358;2023-04-26T07:33:45;96694.50;;;9.56;51.69
68197;BME280;55019;49.382;11.358;2023-04-26T07:36:10;96686.69;;;9.73;52.69
68197;BME280;55019;49.382;11.358;2023-04-26T07:38:36;96690.28;;;9.80;51.34
68197;BME280;55019;49.382;11.358;2023-04-26T07:41:02;96685.75;;;9.82;51.65
68197;BME280;55019;49.382;11.358;2023-04-26T07:43:29;96687.13;;;10.59;49.27
68197;BME280;55019;49.382;11.358;2023-04-26T07:45:58;96684.69;;;11.14;47.05
68197;BME280;55019;49.382;11.358;2023-04-26T07:48:25;96686.13;;;11.24;47.63
68197;BME280;55019;49.382;11.358;2023-04-26T07:50:51;96687.28;;;10.50;46.01
68197;BME280;55019;49.382;11.358;2023-04-26T07:53:16;96683.22;;;9.23;47.60
68197;BME280;55019;49.382;11.358;2023-04-26T07:55:42;96703.94;;;8.54;50.55
68197;BME280;55019;49.382;11.358;2023-04-26T07:58:08;96696.94;;;8.81;51.81
68197;BME280;55019;49.382;11.358;2023-04-26T08:00:36;96690.91;;;9.74;50.12
68197;BME280;55019;49.382;11.358;2023-04-26T08:03:03;96682.34;;;10.07;47.34
68197;BME280;55019;49.382;11.358;2023-04-26T08:05:29;96688.56;;;10.86;46.54
68197;BME280;55019;49.382;11.358;2023-04-26T08:07:55;96699.22;;;10.51;45.86
68197;BME280;55019;49.382;11.358;2023-04-26T08:10:21;96695.88;;;10.74;44.95
68197;BME280;55019;49.382;11.358;2023-04-26T08:12:46;96686.97;;;10.53;46.96
68197;BME280;55019;49.382;11.358;2023-04-26T08:15:12;96686.63;;;10.80;46.53
68197;BME280;55019;49.382;11.358;2023-04-26T08:17:38;96681.63;;;10.94;45.93
68197;BME280;55019;49.382;11.358;2023-04-26T08:20:04;96679.47;;;11.38;45.82
68197;BME280;55019;49.382;11.358;2023-04-26T08:22:30;96686.59;;;11.36;42.68
68197;BME280;55019;49.382;11.358;2023-04-26T08:24:56;96687.31;;;11.68;45.10
68197;BME280;55019;49.382;11.358;2023-04-26T08:27:21;96691.91;;;12.04;42.60
68197;BME280;55019;49.382;11.358;2023-04-26T08:29:47;96688.25;;;12.21;44.74
68197;BME280;55019;49.382;11.358;2023-04-26T08:32:13;96684.31;;;12.78;40.59
68197;BME280;55019;49.382;11.358;2023-04-26T08:34:39;96682.91;;;12.45;42.74
68197;BME280;55019;49.382;11.358;2023-04-26T08:37:09;96696.03;;;12.21;40.16
68197;BME280;55019;49.382;11.358;2023-04-26T08:39:34;96689.91;;;11.68;42.08
68197;BME280;55019;49.382;11.358;2023-04-26T08:42:13;96694.41;;;11.04;42.08
68197;BME280;55019;49.382;11.358;2023-04-26T08:44:41;96695.22;;;10.80;42.37
68197;BME280;55019;49.382;11.358;2023-04-26T08:47:15;96696.78;;;10.41;43.57
68197;BME280;55019;49.382;11.358;2023-04-26T08:49:52;96692.44;;;9.93;44.09
68197;BME280;55019;49.382;11.358;2023-04-26T08:52:26;96685.50;;;10.42;44.36
68197;BME280;55019;49.382;11.358;2023-04-26T08:54:53;96695.81;;;10.50;41.13
68197;BME280;55019;49.382;11.358;2023-04-26T08:57:21;96695.94;;;11.44;42.26
68197;BME280;55019;49.382;11.358;2023-04-26T08:59:48;96703.50;;;11.78;42.18
68197;BME280;55019;49.382;11.358;2023-04-26T09:02:17;96699.09;;;12.47;38.77
68197;BME280;55019;49.382;11.358;2023-04-26T09:04:45;96699.66;;;12.04;38.64
68197;BME280;55019;49.382;11.358;2023-04-26T09:07:18;96692.44;;;11.92;39.84
68197;BME280;55019;49.382;11.358;2023-04-26T09:09:47;96695.69;;;11.00;39.83
68197;BME280;55019;49.382;11.358;2023-04-26T09:12:17;96704.72;;;10.64;40.97
68197;BME280;55019;49.382;11.358;2023-04-26T09:14:42;96704.34;;;9.86;42.50
68197;BME280;55019;49.382;11.358;2023-04-26T09:17:27;96704.75;;;10.06;40.83
68197;BME280;55019;49.382;11.358;2023-04-26T09:19:54;96700.63;;;10.29;43.04
68197;BME280;55019;49.382;11.358;2023-04-26T09:22:31;96696.34;;;10.70;41.63
68197;BME280;55019;49.382;11.358;2023-04-26T09:24:57;96693.19;;;12.08;40.16
68197;BME280;55019;49.382;11.358;2023-04-26T09:27:34;96691.44;;;12.76;37.59
68197;BME280;55019;49.382;11.358;2023-04-26T09:32:56;96695.09;;;12.67;36.01
68197;BME280;55019;49.382;11.358;2023-04-26T09:37:52;96687.94;;;12.16;38.85
68197;BME280;55019;49.382;11.358;2023-04-26T09:40:19;96688.41;;;12.20;37.25
68197;BME280;55019;49.382;11.358;2023-04-26T09:42:45;96680.53;;;13.40;36.60
68197;BME280;55019;49.382;11.358;2023-04-26T09:45:11;96679.28;;;12.99;33.81
68197;BME280;55019;49.382;11.358;2023-04-26T09:47:37;96686.75;;;13.02;33.66
68197;BME280;55019;49.382;11.358;2023-04-26T09:50:03;96683.03;;;12.74;36.26
68197;BME280;55019;49.382;11.358;2023-04-26T09:52:29;96684.00;;;13.18;36.66
68197;BME280;55019;49.382;11.358;2023-04-26T09:54:54;96675.59;;;13.16;34.69
68197;BME280;55019;49.382;11.358;2023-04-26T09:57:21;96676.41;;;12.94;36.08
68197;BME280;55019;49.382;11.358;2023-04-26T09:59:49;96678.09;;;14.11;36.20
68197;BME280;55019;49.382;11.358;2023-04-26T10:02:20;96667.44;;;14.55;32.17
68197;BME280;55019;49.382;11.358;2023-04-26T10:04:48;96668.63;;;14.18;31.61
68197;BME280;55019;49.382;11.358;2023-04-26T10:07:17;96670.06;;;13.62;35.54
68197;BME280;55019;49.382;11.358;2023-04-26T10:09:43;96664.44;;;13.59;34.86
68197;BME280;55019;49.382;11.358;2023-04-26T10:12:10;96675.66;;;13.08;34.21
68197;BME280;55019;49.382;11.358;2023-04-26T10:14:36;96683.19;;;12.28;36.10
68197;BME280;55019;49.382;11.358;2023-04-26T10:17:03;96676.25;;;11.90;35.66
68197;BME280;55019;49.382;11.358;2023-04-26T10:19:31;96670.41;;;11.57;36.84
68197;BME280;55019;49.382;11.358;2023-04-26T10:22:04;96668.66;;;11.34;38.49
68197;BME280;55019;49.382;11.358;2023-04-26T10:24:30;96674.25;;;11.45;35.58
68197;BME280;55019;49.382;11.358;2023-04-26T10:26:56;96672.41;;;12.16;36.46
68197;BME280;55019;49.382;11.358;2023-04-26T10:29:23;96679.59;;;12.37;37.17
68197;BME280;55019;49.382;11.358;2023-04-26T10:34:37;96663.50;;;11.80;36.55
68197;BME280;55019;49.382;11.358;2023-04-26T10:39:42;96673.00;;;11.34;37.47
68197;BME280;55019;49.382;11.358;2023-04-26T10:42:28;96663.38;;;10.96;37.92
68197;BME280;55019;49.382;11.358;2023-04-26T10:44:56;96666.28;;;11.01;36.88
68197;BME280;55019;49.382;11.358;2023-04-26T10:47:27;96666.44;;;11.23;37.68
68197;BME280;55019;49.382;11.358;2023-04-26T10:50:08;96664.53;;;11.71;38.72
68197;BME280;55019;49.382;11.358;2023-04-26T10:52:36;96676.66;;;12.09;36.03
68197;BME280;55019;49.382;11.358;2023-04-26T10:55:03;96661.97;;;12.02;35.72
68197;BME280;55019;49.382;11.358;2023-04-26T10:57:53;96663.78;;;12.24;36.21
68197;BME280;55019;49.382;11.358;2023-04-26T11:00:28;96652.13;;;12.20;33.50
68197;BME280;55019;49.382;11.358;2023-04-26T11:03:00;96649.88;;;12.25;34.86
68197;BME280;55019;49.382;11.358;2023-04-26T11:10:38;96646.38;;;13.36;34.43
68197;BME280;55019;49.382;11.358;2023-04-26T11:13:04;96646.53;;;13.64;33.42
68197;BME280;55019;49.382;11.358;2023-04-26T11:15:30;96648.91;;;14.09;30.94
68197;BME280;55019;49.382;11.358;2023-04-26T11:17:56;96638.03;;;13.84;31.78
68197;BME280;55019;49.382;11.358;2023-04-26T11:20:27;96642.34;;;14.13;34.83
68197;BME280;55019;49.382;11.358;2023-04-26T11:22:53;96632.22;;;14.32;31.81
68197;BME280;55019;49.382;11.358;2023-04-26T11:25:19;96628.06;;;15.07;31.77
68197;BME280;55019;49.382;11.358;2023-04-26T11:27:44;96636.00;;;14.99;30.02
68197;BME280;55019;49.382;11.358;2023-04-26T11:30:11;96635.72;;;14.87;30.34
68197;BME280;55019;49.382;11.358;2023-04-26T11:32:37;96640.34;;;13.21;32.42
68197;BME280;55019;49.382;11.358;2023-04-26T11:35:03;96635.19;;;12.99;34.96
68197;BME280;55019;49.382;11.358;2023-04-26T11:37:29;96645.94;;;12.06;32.81
68197;BME280;55019;49.382;11.358;2023-04-26T11:39:56;96638.91;;;12.15;34.37
68197;BME280;55019;49.382;11.358;2023-04-26T11:42:25;96634.56;;;12.38;34.55
68197;BME280;55019;49.382;11.358;2023-04-26T11:44:51;96632.34;;;12.04;32.75
68197;BME280;55019;49.382;11.358;2023-04-26T11:47:18;96637.13;;;11.85;33.67
68197;BME280;55019;49.382;11.358;2023-04-26T11:49:45;96638.41;;;12.42;36.55
68197;BME280;55019;49.382;11.358;2023-04-26T11:52:10;96632.13;;;12.36;34.97
68197;BME280;55019;49.382;11.358;2023-04-26T11:54:37;96640.84;;;12.13;33.96
68197;BME280;55019;49.382;11.358;2023-04-26T11:57:13;96631.03;;;12.31;34.09
68197;BME280;55019;49.382;11.358;2023-04-26T11:59:40;96633.50;;;12.24;34.67
68197;BME280;55019;49.382;11.358;2023-04-26T12:02:06;96623.25;;;12.90;33.58
68197;BME280;55019;49.382;11.358;2023-04-26T12:04:32;96623.00;;;14.01;33.78
68197;BME280;55019;49.382;11.358;2023-04-26T12:06:58;96617.72;;;14.65;32.79
68197;BME280;55019;49.382;11.358;2023-04-26T12:09:28;96619.81;;;14.76;32.23
68197;BME280;55019;49.382;11.358;2023-04-26T12:12:03;96615.28;;;14.22;32.86
68197;BME280;55019;49.382;11.358;2023-04-26T12:14:35;96630.53;;;14.25;32.58
68197;BME280;55019;49.382;11.358;2023-04-26T12:17:02;96624.16;;;14.48;32.91
68197;BME280;55019;49.382;11.358;2023-04-26T12:19:35;96624.72;;;14.64;33.48
68197;BME280;55019;49.382;11.358;2023-04-26T12:22:02;96611.59;;;15.00;34.03
68197;BME280;55019;49.382;11.358;2023-04-26T12:24:29;96616.69;;;14.59;31.47
68197;BME280;55019;49.382;11.358;2023-04-26T12:26:57;96604.06;;;14.56;33.06
68197;BME280;55019;49.382;11.358;2023-04-26T12:29:23;96616.97;;;14.29;35.92
68197;BME280;55019;49.382;11.358;2023-04-26T12:31:49;96620.88;;;14.19;31.46
68197;BME280;55019;49.382;11.358;2023-04-26T12:34:14;96612.22;;;13.83;31.35
68197;BME280;55019;49.382;11.358;2023-04-26T12:36:41;96596.44;;;14.34;33.27
68197;BME280;55019;49.382;11.358;2023-04-26T12:39:10;96600.28;;;13.24;31.78
68197;BME280;55019;49.382;11.358;2023-04-26T12:41:38;96605.47;;;13.24;33.91
68197;BME280;55019;49.382;11.358;2023-04-26T12:44:05;96610.59;;;13.82;34.27
68197;BME280;55019;49.382;11.358;2023-04-26T12:46:31;96603.91;;;13.73;33.41
68197;BME280;55019;49.382;11.358;2023-04-26T12:48:56;96606.19;;;13.97;34.62
68197;BME280;55019;49.382;11.358;2023-04-26T12:51:22;96603.13;;;14.08;32.18
68197;BME280;55019;49.382;11.358;2023-04-26T12:53:48;96611.28;;;12.89;34.65
68197;BME280;55019;49.382;11.358;2023-04-26T12:56:15;96616.72;;;13.02;34.92
68197;BME280;55019;49.382;11.358;2023-04-26T12:58:41;96606.97;;;13.47;34.41
68197;BME280;55019;49.382;11.358;2023-04-26T13:01:08;96605.19;;;13.19;34.73
68197;BME280;55019;49.382;11.358;2023-04-26T13:03:34;96604.13;;;13.57;34.48
68197;BME280;55019;49.382;11.358;2023-04-26T13:06:00;96606.25;;;13.68;35.13
68197;BME280;55019;49.382;11.358;2023-04-26T13:08:26;96597.16;;;13.93;32.47
68197;BME280;55019;49.382;11.358;2023-04-26T13:10:52;96593.00;;;13.34;34.58
68197;BME280;55019;49.382;11.358;2023-04-26T13:13:18;96600.91;;;13.55;34.23
68197;BME280;55019;49.382;11.358;2023-04-26T13:15:44;96594.16;;;13.75;32.83